Time;durP1;ratioP1;P1;durP2;ratioP2;P2;SDS_P1;SDS_P2;PMS_P1;PMS_P2;Temp;Humidity;BMP_temperature;BMP_pressure;BME280_temperature;BME280_humidity;BME280_pressure;Samples;Min_cycle;Max_cycle;Signal;HPM_P1;HPM_P2
2022/09/08 00:00:16;;;;;;;14.20;7.53;;;16.10;99.90;;;;;;5034714;28;20057;-96
2022/09/08 00:02:41;;;;;;;13.63;8.43;;;16.10;99.90;;;;;;5034349;28;20041;-96
2022/09/08 00:05:08;;;;;;;14.43;8.68;;;16.10;99.90;;;;;;5035181;28;20401;-95
2022/09/08 00:07:35;;;;;;;13.98;8.50;;;16.00;99.90;;;;;;5034515;28;20102;-95
2022/09/08 00:10:03;;;;;;;10.77;7.60;;;16.10;99.90;;;;;;5034444;28;20119;-96
2022/09/08 00:12:29;;;;;;;14.32;7.75;;;15.90;99.90;;;;;;5033461;28;20049;-95
2022/09/08 00:14:56;;;;;;;17.58;8.93;;;15.90;99.90;;;;;;5035490;28;20045;-95
2022/09/08 00:17:23;;;;;;;11.32;8.95;;;15.90;99.90;;;;;;5033744;28;20087;-95
2022/09/08 00:19:48;;;;;;;17.60;9.85;;;15.80;99.90;;;;;;5034850;28;20045;-95
2022/09/08 00:22:14;;;;;;;14.93;10.35;;;15.80;99.90;;;;;;5034941;28;20045;-95
2022/09/08 00:24:40;;;;;;;16.92;11.20;;;15.90;99.90;;;;;;5017487;28;20045;-95
2022/09/08 00:27:06;;;;;;;16.48;10.77;;;15.90;99.90;;;;;;5017730;28;20195;-95
2022/09/08 00:29:32;;;;;;;19.05;11.85;;;15.90;99.90;;;;;;5017796;28;20556;-96
2022/09/08 00:31:57;;;;;;;18.35;12.60;;;16.00;99.90;;;;;;5017332;28;20040;-95
2022/09/08 00:34:23;;;;;;;17.70;12.98;;;16.00;99.90;;;;;;5017669;28;20060;-95
2022/09/08 00:36:49;;;;;;;17.30;12.43;;;16.00;99.90;;;;;;5018008;28;20048;-95
2022/09/08 00:39:15;;;;;;;15.77;11.82;;;16.00;99.90;;;;;;5021936;28;20037;-95
2022/09/08 00:41:41;;;;;;;17.63;12.50;;;16.00;99.90;;;;;;5037314;28;20051;-94
2022/09/08 00:44:34;;;;;;;16.75;12.45;;;16.00;99.90;;;;;;5020313;28;20090;-95
2022/09/08 00:47:01;;;;;;;20.25;14.52;;;16.00;99.90;;;;;;5034297;28;20473;-96
2022/09/08 00:49:28;;;;;;;18.17;14.57;;;15.90;99.90;;;;;;5017647;28;20056;-95
2022/09/08 00:51:56;;;;;;;16.92;13.90;;;15.90;99.90;;;;;;5017648;28;20037;-94
2022/09/08 00:54:23;;;;;;;18.02;15.02;;;15.90;99.90;;;;;;5018253;28;20071;-93
2022/09/08 00:56:50;;;;;;;20.17;14.68;;;15.90;99.90;;;;;;5018117;28;20061;-94
2022/09/08 00:59:19;;;;;;;21.92;16.17;;;15.90;99.90;;;;;;5017018;28;20438;-95
2022/09/08 01:01:46;;;;;;;17.73;15.80;;;15.80;99.90;;;;;;5017992;28;20059;-95
2022/09/08 01:04:12;;;;;;;23.38;17.25;;;15.80;99.90;;;;;;5017549;28;20040;-95
2022/09/08 01:12:44;;;;;;;23.27;17.92;;;15.80;99.90;;;;;;5033277;28;20401;-95
2022/09/08 01:15:15;;;;;;;27.38;21.17;;;15.70;99.90;;;;;;5017851;28;20037;-95
2022/09/08 01:17:41;;;;;;;30.27;21.70;;;15.80;99.90;;;;;;5017327;28;20037;-96
2022/09/08 01:20:08;;;;;;;29.63;21.60;;;15.70;99.90;;;;;;5017475;28;20055;-95
2022/09/08 01:22:56;;;;;;;27.75;23.58;;;15.70;99.90;;;;;;5017406;28;20181;-95
2022/09/08 01:25:53;;;;;;;27.98;22.70;;;15.80;99.90;;;;;;5017078;28;20048;-96
2022/09/08 01:28:28;;;;;;;27.73;23.02;;;15.80;99.90;;;;;;5016196;28;20045;-94
2022/09/08 01:30:55;;;;;;;28.15;23.42;;;15.80;99.90;;;;;;5016939;28;20045;-95
2022/09/08 01:33:21;;;;;;;26.83;23.38;;;15.80;99.90;;;;;;5016580;28;20091;-96
2022/09/08 01:35:47;;;;;;;27.92;22.17;;;15.80;99.90;;;;;;5016188;28;20053;-95
2022/09/08 01:38:13;;;;;;;28.70;23.42;;;15.80;99.90;;;;;;5016959;28;20374;-96
2022/09/08 01:40:39;;;;;;;29.15;25.42;;;15.80;99.90;;;;;;5016262;28;20106;-95
2022/09/08 01:43:07;;;;;;;29.77;24.48;;;15.90;99.90;;;;;;5016493;28;20083;-94
2022/09/08 01:45:34;;;;;;;30.08;26.52;;;15.90;99.90;;;;;;5015990;28;20045;-95
2022/09/08 01:47:59;;;;;;;31.95;25.83;;;15.90;99.90;;;;;;5016220;28;20094;-94
2022/09/08 01:50:25;;;;;;;38.75;27.88;;;15.90;99.90;;;;;;5023959;28;20033;-94
2022/09/08 01:52:51;;;;;;;37.40;26.17;;;16.00;99.90;;;;;;5036108;28;20036;-95
2022/09/08 01:55:17;;;;;;;33.58;25.80;;;15.90;99.90;;;;;;5036056;28;20048;-94
2022/09/08 01:57:43;;;;;;;30.83;25.90;;;16.00;99.90;;;;;;5035960;28;20505;-94
2022/09/08 02:00:09;;;;;;;33.35;27.25;;;15.90;99.90;;;;;;5035908;28;20036;-94
2022/09/08 02:02:36;;;;;;;33.92;28.83;;;16.00;99.90;;;;;;5035481;28;20051;-95
2022/09/08 02:05:02;;;;;;;34.72;29.33;;;16.00;99.90;;;;;;5036223;28;20055;-95
2022/09/08 02:07:27;;;;;;;33.50;27.40;;;16.00;99.90;;;;;;5035657;28;20044;-95
2022/09/08 02:09:53;;;;;;;34.67;28.25;;;16.00;99.90;;;;;;5035452;28;20056;-95
2022/09/08 02:12:19;;;;;;;35.90;29.38;;;16.00;99.90;;;;;;5035393;28;20041;-94
2022/09/08 02:14:45;;;;;;;33.70;29.85;;;16.10;99.90;;;;;;5035871;28;20049;-95
2022/09/08 02:17:11;;;;;;;34.63;30.50;;;16.10;99.90;;;;;;5034490;28;20051;-95
2022/09/08 02:19:37;;;;;;;38.25;30.88;;;16.20;99.90;;;;;;5035095;28;20048;-94
2022/09/08 02:22:02;;;;;;;38.15;29.85;;;16.20;99.90;;;;;;5037311;28;20036;-95
2022/09/08 02:24:28;;;;;;;34.58;30.13;;;16.20;99.90;;;;;;5034957;28;20476;-95
2022/09/08 02:26:55;;;;;;;34.60;29.83;;;16.30;99.90;;;;;;5035815;28;20128;-95
2022/09/08 02:29:21;;;;;;;34.20;29.38;;;16.30;99.90;;;;;;5034972;28;20159;-96
2022/09/08 02:31:47;;;;;;;35.22;30.88;;;16.30;99.90;;;;;;5034685;28;20052;-95
2022/09/08 02:34:13;;;;;;;36.40;31.33;;;16.30;99.90;;;;;;5035195;28;20050;-95
2022/09/08 02:36:39;;;;;;;43.30;32.25;;;16.40;99.90;;;;;;5035476;28;20072;-96
2022/09/08 02:39:04;;;;;;;37.35;31.98;;;16.40;99.90;;;;;;5032968;28;20047;-95
2022/09/08 02:41:30;;;;;;;34.50;30.67;;;16.40;99.90;;;;;;5015701;28;20136;-95
2022/09/08 02:43:56;;;;;;;38.08;31.63;;;16.40;99.90;;;;;;5015010;28;20645;-94
2022/09/08 02:46:22;;;;;;;38.70;33.53;;;16.40;99.90;;;;;;5014735;28;20432;-95
2022/09/08 02:48:48;;;;;;;38.17;32.40;;;16.40;99.90;;;;;;5015519;28;20049;-95
2022/09/08 02:51:17;;;;;;;38.10;31.63;;;16.50;99.90;;;;;;5014937;28;20502;-96
2022/09/08 02:53:43;;;;;;;40.50;33.83;;;16.50;99.90;;;;;;5015611;28;20076;-94
2022/09/08 02:56:09;;;;;;;39.00;33.83;;;16.40;99.90;;;;;;5015353;28;20130;-95
2022/09/08 02:58:36;;;;;;;42.58;34.53;;;16.50;99.90;;;;;;5014138;28;20045;-95
2022/09/08 03:01:03;;;;;;;40.38;33.67;;;16.50;99.90;;;;;;5015274;28;20148;-94
2022/09/08 03:03:29;;;;;;;38.10;32.97;;;16.60;99.90;;;;;;5014743;28;20052;-94
2022/09/08 03:05:55;;;;;;;39.03;33.83;;;16.40;99.90;;;;;;5015056;28;20044;-96
2022/09/08 03:08:23;;;;;;;42.70;35.75;;;16.50;99.90;;;;;;5014867;28;20064;-93
2022/09/08 03:10:50;;;;;;;46.72;35.65;;;16.50;99.90;;;;;;5015692;28;20179;-94
2022/09/08 03:13:16;;;;;;;42.42;35.50;;;16.50;99.90;;;;;;5014634;28;20041;-95
2022/09/08 03:15:42;;;;;;;48.85;36.65;;;16.50;99.90;;;;;;5022036;28;20058;-95
2022/09/08 03:18:08;;;;;;;47.40;36.90;;;16.40;99.90;;;;;;5034892;28;20127;-94
2022/09/08 03:20:35;;;;;;;46.10;36.10;;;16.50;99.90;;;;;;5033919;28;20055;-95
2022/09/08 03:23:02;;;;;;;43.45;35.85;;;16.50;99.90;;;;;;5035349;28;20461;-94
2022/09/08 03:25:29;;;;;;;46.03;37.58;;;16.50;99.90;;;;;;5035265;28;20044;-94
2022/09/08 03:27:55;;;;;;;53.35;38.90;;;16.50;99.90;;;;;;5034222;28;20048;-93
2022/09/08 03:30:21;;;;;;;44.33;37.42;;;16.50;99.90;;;;;;5034545;28;20041;-95
2022/09/08 03:32:49;;;;;;;48.78;38.08;;;16.50;99.90;;;;;;5038937;28;20047;-94
2022/09/08 03:35:17;;;;;;;46.88;39.42;;;16.50;99.90;;;;;;5039730;28;20044;-94
2022/09/08 03:37:43;;;;;;;48.08;38.47;;;16.50;99.90;;;;;;5038854;28;20051;-94
2022/09/08 03:40:12;;;;;;;48.28;39.83;;;16.50;99.90;;;;;;5038126;28;20166;-94
2022/09/08 03:42:40;;;;;;;50.88;40.42;;;16.50;99.90;;;;;;5037801;28;20087;-94
2022/09/08 03:45:09;;;;;;;51.30;40.63;;;16.50;99.90;;;;;;5038536;28;20080;-95
2022/09/08 03:47:35;;;;;;;50.13;40.95;;;16.50;99.90;;;;;;5037286;28;20044;-95
2022/09/08 03:50:02;;;;;;;57.92;43.42;;;16.50;99.90;;;;;;5035536;28;20041;-95
2022/09/08 03:52:28;;;;;;;56.50;41.38;;;16.50;99.90;;;;;;5018661;28;20049;-95
2022/09/08 03:54:54;;;;;;;54.78;42.28;;;16.50;99.90;;;;;;5018081;28;20048;-95
2022/09/08 03:57:23;;;;;;;49.45;40.47;;;16.50;99.90;;;;;;5018207;28;20049;-95
2022/09/08 03:59:49;;;;;;;54.83;42.35;;;16.50;99.90;;;;;;5018430;28;20056;-95
2022/09/08 04:02:17;;;;;;;51.17;41.55;;;16.60;99.90;;;;;;5017656;28;20117;-94
2022/09/08 04:04:42;;;;;;;51.40;42.13;;;16.60;99.90;;;;;;5018544;28;20045;-94
2022/09/08 04:07:09;;;;;;;53.45;42.13;;;16.60;99.90;;;;;;5018635;28;20385;-95
2022/09/08 04:09:37;;;;;;;52.17;43.20;;;16.60;99.90;;;;;;5018084;28;20087;-94
2022/09/08 04:12:03;;;;;;;54.15;43.60;;;16.70;99.90;;;;;;5024687;28;20435;-94
2022/09/08 04:14:30;;;;;;;54.67;43.00;;;16.60;99.90;;;;;;5019033;28;20048;-95
2022/09/08 04:16:56;;;;;;;53.20;43.90;;;16.60;99.90;;;;;;5037622;28;20086;-94
2022/09/08 04:19:22;;;;;;;51.05;41.72;;;16.60;99.90;;;;;;5038686;28;20064;-95
2022/09/08 04:21:48;;;;;;;55.75;44.35;;;16.60;99.90;;;;;;5040170;28;20040;-94
2022/09/08 04:24:14;;;;;;;54.80;44.05;;;16.60;99.90;;;;;;5039360;28;20381;-94
2022/09/08 04:26:40;;;;;;;58.47;44.00;;;16.60;99.90;;;;;;5037854;28;20480;-94
2022/09/08 04:29:07;;;;;;;55.05;45.22;;;16.60;99.90;;;;;;5037634;28;20067;-95
2022/09/08 04:31:34;;;;;;;58.20;45.00;;;16.60;99.90;;;;;;5024938;28;20049;-94
2022/09/08 04:34:01;;;;;;;54.15;45.17;;;16.60;99.90;;;;;;5018724;28;20051;-95
2022/09/08 04:36:27;;;;;;;51.30;42.63;;;16.60;99.90;;;;;;5025082;28;20074;-95
2022/09/08 04:38:55;;;;;;;54.72;43.15;;;16.60;99.90;;;;;;5027344;28;20037;-94
2022/09/08 04:41:20;;;;;;;60.60;44.85;;;16.70;99.90;;;;;;5044965;28;20044;-94
2022/09/08 04:43:46;;;;;;;52.35;41.55;;;16.70;99.90;;;;;;5025602;28;20541;-95
2022/09/08 04:46:14;;;;;;;59.97;45.88;;;16.70;99.90;;;;;;5028142;28;20123;-95
2022/09/08 04:48:42;;;;;;;53.80;42.03;;;16.70;99.90;;;;;;5028937;28;20048;-95
2022/09/08 04:51:10;;;;;;;55.97;45.20;;;16.70;99.90;;;;;;5032244;28;20413;-94
2022/09/08 04:53:36;;;;;;;54.97;44.28;;;16.70;99.90;;;;;;5027540;28;20489;-95
2022/09/08 04:56:04;;;;;;;53.83;43.88;;;16.70;99.90;;;;;;5025681;28;20052;-94
2022/09/08 04:58:31;;;;;;;59.08;44.95;;;16.70;99.90;;;;;;5026354;28;20071;-95
2022/09/08 05:01:05;;;;;;;57.75;44.63;;;16.70;99.90;;;;;;5027715;28;20470;-95
2022/09/08 05:03:32;;;;;;;58.80;45.22;;;16.60;99.90;;;;;;5061861;28;20048;-95
2022/09/08 05:06:04;;;;;;;56.03;44.97;;;16.60;99.90;;;;;;5028356;28;20047;-95
2022/09/08 05:08:29;;;;;;;52.33;44.70;;;16.60;99.90;;;;;;5046244;28;20154;-95
2022/09/08 05:10:55;;;;;;;56.70;44.72;;;16.60;99.90;;;;;;5024499;28;20119;-94
2022/09/08 05:13:24;;;;;;;63.67;47.15;;;16.60;99.90;;;;;;5023625;28;20493;-93
2022/09/08 05:15:49;;;;;;;62.42;47.92;;;16.70;99.90;;;;;;5032361;28;20438;-96
2022/09/08 05:18:15;;;;;;;60.63;47.42;;;16.70;99.90;;;;;;5028396;28;20037;-96
2022/09/08 05:20:41;;;;;;;65.75;49.40;;;16.70;99.90;;;;;;5024413;28;20076;-95
2022/09/08 05:23:06;;;;;;;69.10;48.55;;;16.70;99.90;;;;;;5028956;28;20052;-96
2022/09/08 05:25:32;;;;;;;65.38;48.70;;;16.70;99.90;;;;;;5024212;28;20048;-95
2022/09/08 05:27:58;;;;;;;59.78;48.17;;;16.70;99.90;;;;;;5020541;28;20060;-95
2022/09/08 05:30:23;;;;;;;65.65;47.25;;;16.70;99.90;;;;;;5033891;28;20075;-96
2022/09/08 05:32:49;;;;;;;61.55;47.45;;;16.70;99.90;;;;;;5018501;28;20077;-96
2022/09/08 05:35:15;;;;;;;62.33;47.42;;;16.80;99.90;;;;;;5030164;28;20044;-95
2022/09/08 05:37:41;;;;;;;64.47;48.85;;;16.80;99.90;;;;;;5036370;28;20078;-95
2022/09/08 05:40:07;;;;;;;61.38;48.13;;;16.90;99.90;;;;;;5037332;28;20054;-96
2022/09/08 05:42:33;;;;;;;57.83;45.92;;;16.90;99.90;;;;;;5036979;28;20041;-96
2022/09/08 05:44:58;;;;;;;57.42;45.35;;;16.90;99.90;;;;;;5037541;28;20163;-95
2022/09/08 05:47:24;;;;;;;58.78;47.33;;;16.90;99.90;;;;;;5055570;28;20043;-95
2022/09/08 05:49:50;;;;;;;58.90;46.58;;;16.90;99.90;;;;;;5039070;28;20097;-96
2022/09/08 05:52:16;;;;;;;56.60;45.40;;;17.00;99.90;;;;;;5035931;28;20093;-95
2022/09/08 05:54:41;;;;;;;56.95;44.03;;;17.00;99.90;;;;;;5037246;28;20040;-95
2022/09/08 05:57:07;;;;;;;54.03;44.78;;;17.00;99.90;;;;;;5038154;28;20040;-95
2022/09/08 05:59:34;;;;;;;50.45;43.92;;;17.10;99.90;;;;;;5037914;28;20099;-96
2022/09/08 06:02:00;;;;;;;51.42;42.92;;;17.10;99.90;;;;;;5037518;28;20135;-95
2022/09/08 06:04:25;;;;;;;53.17;42.80;;;17.10;99.90;;;;;;5037565;28;20212;-95
2022/09/08 06:06:51;;;;;;;52.65;43.15;;;17.20;99.90;;;;;;5036566;28;20039;-95
2022/09/08 06:09:17;;;;;;;54.17;44.70;;;17.20;99.90;;;;;;5035458;28;20059;-96
2022/09/08 06:11:43;;;;;;;55.63;44.35;;;17.20;99.90;;;;;;5036930;28;20614;-95
2022/09/08 06:14:10;;;;;;;50.53;43.38;;;17.20;99.90;;;;;;5037399;28;20036;-95
2022/09/08 06:16:36;;;;;;;55.00;43.75;;;17.30;99.90;;;;;;5038097;28;20044;-95
2022/09/08 06:19:02;;;;;;;52.92;43.67;;;17.30;99.90;;;;;;5044521;28;20145;-95
2022/09/08 06:21:30;;;;;;;52.00;42.97;;;17.30;99.90;;;;;;5040794;28;20036;-95
2022/09/08 06:23:58;;;;;;;51.13;43.47;;;17.30;99.90;;;;;;5035257;28;20048;-96
2022/09/08 06:26:42;;;;;;;55.15;43.53;;;17.30;99.90;;;;;;5036181;28;20388;-94
2022/09/08 06:29:11;;;;;;;55.05;44.25;;;17.30;99.90;;;;;;5036315;28;20047;-95
2022/09/08 06:31:54;;;;;;;57.00;44.63;;;17.30;99.90;;;;;;5039887;28;20049;-96
2022/09/08 06:34:26;;;;;;;50.95;43.10;;;17.30;99.90;;;;;;5040054;23;20057;-87
2022/09/08 06:37:00;;;;;;;54.63;44.47;;;17.20;99.90;;;;;;5008077;28;20045;-87
2022/09/08 06:39:35;;;;;;;55.13;44.72;;;17.30;99.90;;;;;;5026930;28;20045;-88
2022/09/08 06:42:26;;;;;;;59.08;45.75;;;17.30;99.90;;;;;;5011165;28;20096;-87
2022/09/08 06:44:54;;;;;;;52.20;42.33;;;17.30;99.90;;;;;;5011220;28;20110;-86
2022/09/08 06:47:26;;;;;;;56.95;45.47;;;17.30;99.90;;;;;;5027159;28;20114;-87
2022/09/08 06:49:52;;;;;;;59.13;45.15;;;17.30;99.90;;;;;;5011930;28;20056;-87
2022/09/08 06:52:33;;;;;;;55.83;43.72;;;17.30;99.90;;;;;;5012542;28;20068;-88
2022/09/08 06:55:25;;;;;;;56.65;45.22;;;17.30;99.90;;;;;;5027554;28;20082;-85
2022/09/08 06:58:05;;;;;;;60.67;46.13;;;17.30;99.90;;;;;;5010060;28;20052;-87
2022/09/08 07:00:42;;;;;;;64.18;45.42;;;17.30;99.90;;;;;;5010790;28;20084;-86
2022/09/08 07:03:16;;;;;;;58.95;44.67;;;17.20;99.90;;;;;;5010393;28;20085;-86
2022/09/08 07:06:08;;;;;;;60.15;45.95;;;17.20;99.90;;;;;;5009490;28;20050;-85
2022/09/08 07:08:59;;;;;;;55.10;45.33;;;17.20;99.90;;;;;;5011304;28;20077;-94
2022/09/08 07:11:38;;;;;;;58.08;45.60;;;17.20;99.90;;;;;;5010479;28;20143;-92
2022/09/08 07:14:41;;;;;;;57.20;44.45;;;17.20;99.90;;;;;;5011239;28;20416;-93
2022/09/08 07:17:21;;;;;;;61.30;47.58;;;17.10;99.90;;;;;;5014205;28;20049;-96
2022/09/08 07:20:03;;;;;;;;;;;;;;;;;;;;;
2022/09/08 07:23:14;;;;;;;57.80;45.13;;;17.20;99.90;;;;;;5093499;22;20054;-97
2022/09/08 07:29:44;;;;;;;63.58;47.90;;;17.10;99.90;;;;;;5026204;28;20049;-96
2022/09/08 07:32:16;;;;;;;64.32;46.67;;;17.10;99.90;;;;;;5057341;23;20083;-96
2022/09/08 07:36:08;;;;;;;;;;;;;;;;;;;;;
2022/09/08 07:38:57;;;;;;;68.93;48.90;;;17.20;99.90;;;;;;5040495;28;20132;-94
2022/09/08 07:42:16;;;;;;;;;;;;;;;;;;;;;
2022/09/08 07:45:42;;;;;;;73.65;49.97;;;17.10;99.90;;;;;;5051030;28;20403;-93
2022/09/08 07:53:15;;;;;;;;;;;;;;;;;;;;;
2022/09/08 08:29:39;;;;;;;55.65;38.40;;;17.10;99.90;;;;;;5048607;28;20511;-90
2022/09/08 08:33:15;;;;;;;55.13;37.05;;;17.10;99.90;;;;;;5017880;28;20056;-91
2022/09/08 08:36:12;;;;;;;62.70;41.72;;;17.10;99.90;;;;;;5025851;28;20106;-93
2022/09/08 08:39:21;;;;;;;55.60;39.30;;;17.00;99.90;;;;;;5017659;28;20051;-93
2022/09/08 08:41:54;;;;;;;61.83;39.15;;;17.10;99.90;;;;;;5009635;28;20081;-94
2022/09/08 08:44:44;;;;;;;55.58;38.28;;;17.20;99.90;;;;;;4996829;28;20049;-93
2022/09/08 08:47:35;;;;;;;50.13;36.40;;;17.20;99.90;;;;;;5013777;28;20053;-92
2022/09/08 08:50:21;;;;;;;50.42;37.80;;;17.30;99.90;;;;;;4997758;28;20091;-94
2022/09/08 08:53:26;;;;;;;45.42;34.70;;;17.40;99.90;;;;;;5014675;28;20077;-93
2022/09/08 08:59:16;;;;;;;45.08;35.08;;;17.60;99.90;;;;;;4991073;28;20053;-92
2022/09/08 09:02:17;;;;;;;41.80;34.35;;;17.70;99.90;;;;;;4994363;28;20038;-91
2022/09/08 09:05:24;;;;;;;44.80;34.55;;;17.80;99.90;;;;;;5009875;28;20095;-92
2022/09/08 09:12:06;;;;;;;44.97;34.67;;;17.80;99.90;;;;;;4987974;28;20557;-92
2022/09/08 09:14:35;;;;;;;;;;;17.80;99.90;;;;;;4997634;28;20453;-92
2022/09/08 09:17:18;;;;;;;;;;;;;;;;;;;;;
2022/09/08 09:20:03;;;;;;;46.25;35.05;;;17.90;99.90;;;;;;5013250;28;20136;-92
2022/09/08 09:23:20;;;;;;;45.47;34.35;;;17.90;99.90;;;;;;4997321;28;20045;-93
2022/09/08 09:30:38;;;;;;;46.03;34.40;;;17.90;99.90;;;;;;4948396;28;20064;-92
2022/09/08 09:33:23;;;;;;;41.30;32.53;;;17.80;99.90;;;;;;4996907;28;20164;-93
2022/09/08 09:36:39;;;;;;;46.75;34.65;;;17.70;99.90;;;;;;4997057;28;20045;-91
2022/09/08 09:39:21;;;;;;;;;;;;;;;;;;;;;
2022/09/08 09:42:47;;;;;;;;;;;;;;;;;;;;;
2022/09/08 09:46:18;;;;;;;;;;;;;;;;;;;;;
2022/09/08 09:52:47;;;;;;;25.98;21.02;;;18.10;99.90;;;;;;4970280;28;20136;-93
2022/09/08 09:55:34;;;;;;;24.60;19.90;;;18.20;99.90;;;;;;4996735;28;20052;-92
2022/09/08 09:58:45;;;;;;;21.88;17.00;;;18.50;99.90;;;;;;4996793;28;20064;-92
2022/09/08 10:01:32;;;;;;;19.00;14.80;;;18.40;99.90;;;;;;4996226;28;20107;-92
2022/09/08 10:04:29;;;;;;;18.88;15.95;;;18.50;99.90;;;;;;4996350;28;20056;-92
2022/09/08 10:07:33;;;;;;;15.68;13.85;;;18.40;99.90;;;;;;4995964;28;20051;-91
2022/09/08 10:10:45;;;;;;;13.93;10.63;;;18.40;99.90;;;;;;5012983;28;20128;-91
2022/09/08 10:13:26;;;;;;;12.70;10.38;;;18.40;99.90;;;;;;4995983;28;20119;-92
2022/09/08 10:16:14;;;;;;;14.40;10.25;;;18.40;99.90;;;;;;4996025;28;20037;-92
2022/09/08 10:18:59;;;;;;;15.73;8.40;;;18.50;99.90;;;;;;5029241;28;20844;-92
2022/09/08 10:22:09;;;;;;;11.30;8.18;;;18.40;99.90;;;;;;4995895;28;20064;-92
2022/09/08 10:24:52;;;;;;;12.52;9.02;;;18.50;99.90;;;;;;4996798;28;20170;-93
2022/09/08 10:28:00;;;;;;;10.18;7.72;;;18.40;99.90;;;;;;4996081;28;20132;-92
2022/09/08 10:30:43;;;;;;;14.27;8.75;;;18.30;99.90;;;;;;4995705;28;20449;-92
2022/09/08 10:33:37;;;;;;;10.38;6.35;;;18.20;99.90;;;;;;5012171;28;20049;-91
2022/09/08 10:36:11;;;;;;;11.55;7.85;;;18.20;99.90;;;;;;4997236;28;20511;-92
2022/09/08 10:38:54;;;;;;;10.57;7.38;;;18.10;99.90;;;;;;4997080;28;20045;-90
2022/09/08 10:41:40;;;;;;;9.77;6.95;;;18.10;99.90;;;;;;5028678;28;20049;-92
2022/09/08 10:44:40;;;;;;;10.57;7.45;;;18.10;99.90;;;;;;5012749;28;20052;-91
2022/09/08 10:47:37;;;;;;;10.05;7.70;;;18.10;99.90;;;;;;5012930;28;20049;-91
2022/09/08 10:50:18;;;;;;;8.10;5.70;;;18.10;99.90;;;;;;5012469;28;20481;-90
2022/09/08 10:53:16;;;;;;;9.20;4.68;;;18.10;99.90;;;;;;5012728;28;20049;-90
2022/09/08 10:55:55;;;;;;;6.18;4.38;;;18.00;99.90;;;;;;5013462;28;20137;-91
2022/09/08 10:58:40;;;;;;;;;;;;;;;;;;;;;
2022/09/08 11:01:25;;;;;;;7.50;4.88;;;18.00;99.90;;;;;;5011683;28;20072;-91
2022/09/08 11:04:20;;;;;;;7.07;4.93;;;18.00;99.90;;;;;;5011473;28;20505;-91
2022/09/08 11:07:17;;;;;;;7.68;5.10;;;18.00;99.90;;;;;;5012819;28;20049;-91
2022/09/08 11:10:01;;;;;;;12.07;4.35;;;17.90;99.90;;;;;;5013614;28;20131;-90
2022/09/08 11:12:50;;;;;;;7.85;4.32;;;17.80;99.90;;;;;;5011592;28;20085;-91
2022/09/08 11:15:44;;;;;;;6.60;3.72;;;17.80;99.90;;;;;;5011794;28;20041;-89
2022/09/08 11:18:55;;;;;;;6.25;3.03;;;17.80;99.90;;;;;;5012052;28;20559;-89
2022/09/08 11:22:08;;;;;;;5.80;3.17;;;17.70;99.90;;;;;;5012691;28;20048;-89
2022/09/08 11:25:21;;;;;;;10.52;2.80;;;17.70;99.90;;;;;;5010815;28;20054;-90
2022/09/08 11:28:38;;;;;;;;;;;;;;;;;;;;;
2022/09/08 11:32:31;;;;;;;;;;;;;;;;;;;;;
2022/09/08 11:38:50;;;;;;;8.18;2.75;;;17.60;99.90;;;;;;5066429;28;20519;-91
2022/09/08 11:42:17;;;;;;;10.02;3.13;;;17.50;99.90;;;;;;5033792;28;20056;-90
2022/09/08 11:45:36;;;;;;;;;;;;;;;;;;;;;
2022/09/08 11:48:43;;;;;;;4.70;1.30;;;17.40;99.90;;;;;;5050043;28;20063;-92
2022/09/08 11:51:33;;;;;;;7.35;2.08;;;17.40;99.90;;;;;;5034168;28;20055;-89
2022/09/08 11:55:20;;;;;;;5.88;2.10;;;17.20;99.90;;;;;;5038229;28;20040;-87
2022/09/08 11:58:24;;;;;;;4.43;1.40;;;17.30;99.90;;;;;;5054605;28;20060;-89
2022/09/08 12:01:04;;;;;;;6.05;1.50;;;17.30;99.90;;;;;;5038538;28;20140;-89
2022/09/08 12:04:12;;;;;;;5.47;1.50;;;17.30;99.90;;;;;;5036301;28;20412;-89
2022/09/08 12:07:12;;;;;;;5.70;1.73;;;17.30;99.90;;;;;;5034967;28;20037;-89
2022/09/08 12:10:00;;;;;;;6.22;1.77;;;17.30;99.90;;;;;;5034967;28;20041;-89
2022/09/08 12:12:54;;;;;;;3.58;1.30;;;17.20;99.90;;;;;;5033705;28;20122;-89
2022/09/08 12:16:09;;;;;;;6.53;1.55;;;17.40;99.90;;;;;;5018403;28;20052;-89
2022/09/08 12:19:01;;;;;;;9.10;2.10;;;17.20;99.90;;;;;;5018247;28;20092;-89
2022/09/08 12:21:58;;;;;;;5.07;2.17;;;17.30;99.90;;;;;;5034684;28;20281;-89
2022/09/08 12:24:44;;;;;;;5.47;2.33;;;17.30;99.90;;;;;;5018120;28;20048;-89
2022/09/08 12:27:36;;;;;;;;;;;;;;;;;;;;;
2022/09/08 12:31:31;;;;;;;5.68;2.80;;;17.30;99.90;;;;;;5051703;28;20045;-88
2022/09/08 12:33:53;;;;;;;6.72;2.00;;;17.30;99.90;;;;;;5020583;28;20063;-89
2022/09/08 12:36:43;;;;;;;4.35;2.22;;;17.40;99.90;;;;;;5012869;28;20056;-89
2022/09/08 12:39:53;;;;;;;7.90;2.38;;;17.40;99.90;;;;;;5014357;28;20056;-90
2022/09/08 12:50:26;;;;;;;;;;;;;;;;;;;;;
2022/09/08 12:53:29;;;;;;;7.22;1.90;;;17.70;99.90;;;;;;5014404;28;20214;-92
2022/09/08 12:56:13;;;;;;;;;;;;;;;;;;;;;
2022/09/08 12:59:21;;;;;;;;;;;;;;;;;;;;;
2022/09/08 13:02:27;;;;;;;5.43;1.90;;;17.80;99.90;;;;;;5030068;28;20065;-91
2022/09/08 13:05:03;;;;;;;;;;;17.70;99.90;;;;;;5030595;28;20048;-90
2022/09/08 13:07:56;;;;;;;4.82;1.48;;;17.80;99.90;;;;;;4997419;28;19925;-91
2022/09/08 13:10:25;;;;;;;;;;;17.90;99.90;;;;;;5029378;28;20056;-90
2022/09/08 13:13:30;;;;;;;5.85;1.60;;;17.80;99.90;;;;;;4997419;28;20020;-91
2022/09/08 13:16:06;;;;;;;5.40;1.67;;;17.80;99.90;;;;;;5030024;28;20060;-93
2022/09/08 13:18:51;;;;;;;5.70;1.90;;;17.80;99.90;;;;;;5029481;28;20115;-93
2022/09/08 13:21:39;;;;;;;6.57;1.98;;;17.80;99.90;;;;;;5013802;28;20493;-93
2022/09/08 13:24:14;;;;;;;6.45;2.20;;;17.90;99.90;;;;;;5013249;28;20041;-93
2022/09/08 13:26:50;;;;;;;5.97;1.70;;;17.80;99.90;;;;;;5030257;28;20132;-90
2022/09/08 13:29:37;;;;;;;4.90;1.92;;;17.80;99.90;;;;;;5019974;28;20135;-90
2022/09/08 13:32:11;;;;;;;6.05;1.88;;;17.80;99.90;;;;;;5028810;28;20053;-84
2022/09/08 13:34:52;;;;;;;5.00;2.13;;;17.70;99.90;;;;;;5028222;28;20037;-85
2022/09/08 13:37:37;;;;;;;5.63;1.90;;;17.70;99.90;;;;;;5042765;28;20045;-85
2022/09/08 13:40:27;;;;;;;6.22;2.40;;;17.70;99.90;;;;;;5046955;28;20049;-85
2022/09/08 13:43:01;;;;;;;4.25;2.28;;;17.80;99.90;;;;;;5030696;28;20088;-84
2022/09/08 13:45:45;;;;;;;7.25;2.95;;;17.90;99.90;;;;;;5045543;28;20135;-84
2022/09/08 13:48:36;;;;;;;7.80;3.15;;;17.80;99.90;;;;;;5028794;28;20040;-84
2022/09/08 13:51:25;;;;;;;7.93;3.03;;;17.90;99.90;;;;;;5034340;28;20098;-84
2022/09/08 13:54:07;;;;;;;7.13;3.42;;;18.00;99.90;;;;;;5033615;28;20135;-84
2022/09/08 13:56:59;;;;;;;6.53;3.43;;;18.10;99.90;;;;;;5034034;28;20476;-84
2022/09/08 13:59:25;;;;;;;7.30;4.07;;;18.20;99.90;;;;;;5032886;28;20472;-84
2022/09/08 14:01:52;;;;;;;6.50;3.65;;;18.30;99.90;;;;;;5034318;28;20052;-84
2022/09/08 14:04:26;;;;;;;7.35;4.18;;;18.40;99.90;;;;;;5050255;28;20048;-84
2022/09/08 14:07:01;;;;;;;9.05;3.63;;;18.50;99.90;;;;;;5050181;28;20120;-85
2022/09/08 14:09:30;;;;;;;5.93;3.95;;;18.60;99.90;;;;;;5033152;28;20053;-84
2022/09/08 14:12:17;;;;;;;9.25;3.88;;;18.60;99.90;;;;;;5033904;28;20078;-84
2022/09/08 14:15:11;;;;;;;8.13;4.20;;;18.70;99.90;;;;;;5031708;28;20391;-84
2022/09/08 14:17:54;;;;;;;8.82;4.00;;;18.80;99.90;;;;;;5030063;28;20052;-84
2022/09/08 14:20:27;;;;;;;8.00;4.85;;;19.00;99.90;;;;;;5012836;28;20163;-84
2022/09/08 14:23:02;;;;;;;11.13;4.88;;;19.00;99.90;;;;;;5014347;28;20041;-84
2022/09/08 14:25:33;;;;;;;8.93;4.70;;;19.00;99.90;;;;;;5046638;28;20053;-83
2022/09/08 14:28:07;;;;;;;6.90;4.30;;;19.00;99.90;;;;;;5012774;28;20045;-84
2022/09/08 14:30:54;;;;;;;14.00;4.90;;;19.00;99.90;;;;;;5012968;28;20151;-84
2022/09/08 14:33:33;;;;;;;8.45;4.30;;;19.10;99.90;;;;;;5013178;28;20076;-84
2022/09/08 14:36:13;;;;;;;7.70;4.43;;;19.10;99.90;;;;;;5012607;28;20049;-84
2022/09/08 14:39:05;;;;;;;7.93;4.80;;;19.10;99.90;;;;;;5012851;28;20520;-84
2022/09/08 14:41:51;;;;;;;8.63;4.85;;;19.20;99.90;;;;;;5012781;28;20049;-83
2022/09/08 14:44:35;;;;;;;8.20;5.00;;;19.20;99.90;;;;;;5029351;28;20500;-84
2022/09/08 14:47:06;;;;;;;10.18;5.35;;;19.20;99.90;;;;;;5013342;28;20523;-84
2022/09/08 14:49:45;;;;;;;10.75;5.30;;;19.20;99.90;;;;;;5013227;28;20157;-88
2022/09/08 14:52:25;;;;;;;13.45;6.03;;;19.20;99.90;;;;;;5028510;28;20041;-83
2022/09/08 14:55:16;;;;;;;12.10;6.35;;;19.30;99.90;;;;;;5029817;28;20052;-84
2022/09/08 14:57:47;;;;;;;10.75;6.15;;;19.30;99.90;;;;;;5012888;28;20111;-84
2022/09/08 15:00:24;;;;;;;12.02;6.32;;;19.30;99.90;;;;;;5012986;28;20045;-84
2022/09/08 15:03:01;;;;;;;11.27;5.85;;;19.40;99.90;;;;;;5013415;28;20053;-83
2022/09/08 15:05:32;;;;;;;9.75;6.75;;;19.40;99.90;;;;;;5029176;28;20061;-84
2022/09/08 15:08:04;;;;;;;11.05;6.85;;;19.40;99.90;;;;;;5028221;28;20128;-86